Time;durP1;ratioP1;P1;durP2;ratioP2;P2;SDS_P1;SDS_P2;PMS_P1;PMS_P2;Temp;Humidity;BMP_temperature;BMP_pressure;BME280_temperature;BME280_humidity;BME280_pressure;Samples;Min_cycle;Max_cycle;Signal;HPM_P1;HPM_P2
2020/12/15 00:00:23;;;;;;;59.90;29.25;;;;;;;0.96;84.82;100007.45;125405;1097;23427;-60
2020/12/15 00:02:50;;;;;;;53.00;26.37;;;;;;;0.92;84.18;100008.83;125416;1101;23333;-60
2020/12/15 00:05:18;;;;;;;43.47;23.23;;;;;;;0.87;83.99;100008.53;125195;1096;23517;-60
2020/12/15 00:07:45;;;;;;;46.60;23.10;;;;;;;0.79;83.90;100010.48;125336;1097;23386;-60
2020/12/15 00:10:30;;;;;;;60.20;28.43;;;;;;;0.71;84.67;100011.41;125265;1096;23302;-61
2020/12/15 00:12:57;;;;;;;64.90;31.70;;;;;;;0.69;84.65;100013.44;125468;1097;23325;-60
2020/12/15 00:15:25;;;;;;;64.00;30.70;;;;;;;0.67;85.00;100013.61;125406;1095;25169;-61
2020/12/15 00:17:52;;;;;;;60.40;29.25;;;;;;;0.69;85.21;100016.11;129834;1095;23393;-61
2020/12/15 00:20:25;;;;;;;60.13;30.10;;;;;;;0.70;84.84;100013.25;129785;1096;23212;-62
2020/12/15 00:23:01;;;;;;;63.53;31.43;;;;;;;0.73;84.61;100013.87;129952;1102;23287;-61
2020/12/15 00:25:31;;;;;;;54.65;28.15;;;;;;;0.75;85.42;100012.69;129790;1095;23704;-61
2020/12/15 00:27:59;;;;;;;55.43;28.33;;;;;;;0.76;84.64;100024.25;129938;1096;23189;-61
2020/12/15 00:30:26;;;;;;;55.03;28.33;;;;;;;0.77;84.74;100020.55;129827;1096;23866;-62
2020/12/15 00:32:56;;;;;;;47.50;27.20;;;;;;;0.77;84.38;100015.19;129936;1096;23267;-61
2020/12/15 00:35:23;;;;;;;48.35;25.40;;;;;;;0.79;84.75;100018.52;130060;1093;23234;-61
2020/12/15 00:37:53;;;;;;;55.35;24.95;;;;;;;0.82;85.36;100023.53;129990;1093;23270;-61
2020/12/15 00:40:21;;;;;;;49.10;25.45;;;;;;;0.86;84.92;100025.67;130071;1093;23242;-61
2020/12/15 00:42:48;;;;;;;54.40;24.73;;;;;;;0.90;84.49;100021.59;130185;1098;23280;-61
2020/12/15 00:45:16;;;;;;;50.70;24.90;;;;;;;0.94;84.92;100027.42;130144;1093;23254;-62
2020/12/15 00:47:43;;;;;;;52.63;25.93;;;;;;;0.95;84.62;100029.92;130105;1093;23177;-61
2020/12/15 00:50:12;;;;;;;51.30;26.77;;;;;;;0.98;84.93;100020.69;130189;1098;23901;-61
2020/12/15 00:52:43;;;;;;;45.97;24.63;;;;;;;1.00;84.41;100026.70;129813;1093;23168;-62
2020/12/15 00:55:12;;;;;;;45.87;24.43;;;;;;;1.02;85.09;100024.64;130008;1100;23231;-62
2020/12/15 00:57:39;;;;;;;44.35;23.35;;;;;;;1.04;84.97;100027.98;130070;1093;23216;-61
2020/12/15 01:00:13;;;;;;;41.07;23.13;;;;;;;1.02;84.10;100024.64;130015;1093;23818;-61
2020/12/15 01:02:41;;;;;;;40.50;23.20;;;;;;;1.00;84.51;100026.70;130064;1093;23842;-61
2020/12/15 01:05:09;;;;;;;37.07;19.83;;;;;;;0.99;85.12;100036.60;130142;1093;24296;-61
2020/12/15 01:07:39;;;;;;;35.10;18.00;;;;;;;1.01;84.15;100036.42;129866;1093;23213;-61
2020/12/15 01:10:07;;;;;;;42.60;20.80;;;;;;;1.03;84.06;100035.20;129934;1093;23160;-61
2020/12/15 01:12:36;;;;;;;43.85;22.05;;;;;;;1.05;84.79;100027.80;129806;1093;23211;-62
2020/12/15 01:15:23;;;;;;;55.55;27.40;;;;;;;1.08;84.82;100023.08;130125;1099;23204;-61
2020/12/15 01:18:09;;;;;;;69.30;34.73;;;;;;;1.11;84.22;100014.67;129767;1093;23332;-61
2020/12/15 01:20:43;;;;;;;73.20;36.90;;;;;;;1.13;85.19;100016.16;129999;1093;23216;-61
2020/12/15 01:23:15;;;;;;;65.80;33.60;;;;;;;1.13;84.21;100015.33;130098;1093;23925;-61
2020/12/15 01:25:50;;;;;;;69.00;35.37;;;;;;;1.11;84.68;100017.36;130012;1093;23298;-61
2020/12/15 01:28:18;;;;;;;57.60;31.80;;;;;;;1.09;84.43;100020.22;130093;1093;23238;-61
2020/12/15 01:30:46;;;;;;;56.90;29.50;;;;;;;1.08;84.39;100017.72;130208;1099;23171;-61
2020/12/15 01:33:28;;;;;;;43.07;24.50;;;;;;;1.08;84.83;100015.87;130053;1092;23219;-61
2020/12/15 01:36:25;;;;;;;39.87;21.50;;;;;;;1.10;84.62;100015.69;129997;1093;23238;-61
2020/12/15 01:38:54;;;;;;;38.17;19.48;;;;;;;1.11;84.71;100022.72;129862;1093;23206;-61
2020/12/15 01:41:31;;;;;;;;;;;;;;;1.12;84.83;100025.22;130050;1093;23163;-62
2020/12/15 01:44:02;;;;;;;62.77;27.63;;;;;;;1.10;84.79;100029.94;129804;1093;21366;-61
2020/12/15 01:46:37;;;;;;;51.80;25.37;;;;;;;1.05;84.57;100029.65;130066;1098;24621;-61
2020/12/15 01:49:06;;;;;;;54.65;26.50;;;;;;;1.04;83.60;100026.13;129866;1093;24451;-61
2020/12/15 01:51:37;;;;;;;50.20;24.87;;;;;;;1.02;84.92;100022.80;129988;1100;23221;-61
2020/12/15 01:54:06;;;;;;;46.80;22.87;;;;;;;1.00;83.73;100024.86;129854;1095;23214;-61
2020/12/15 01:56:41;;;;;;;38.57;20.47;;;;;;;0.99;83.93;100019.67;129972;1093;23642;-61
2020/12/15 01:59:17;;;;;;;32.77;18.47;;;;;;;1.01;83.84;100023.01;129848;1100;23164;-61
2020/12/15 02:01:45;;;;;;;27.60;16.25;;;;;;;1.01;84.16;100020.32;129982;1096;23293;-61
2020/12/15 02:04:19;;;;;;;30.17;16.30;;;;;;;1.00;84.46;100021.34;130046;1093;24230;-62
2020/12/15 02:06:55;;;;;;;29.75;16.30;;;;;;;1.00;84.60;100021.34;130008;1098;23184;-61
2020/12/15 02:09:23;;;;;;;29.77;16.07;;;;;;;1.00;84.81;100019.48;130025;1093;23853;-61
2020/12/15 02:11:58;;;;;;;30.57;17.80;;;;;;;1.00;84.37;100016.80;129967;1099;23271;-61
2020/12/15 02:14:29;;;;;;;35.67;19.67;;;;;;;0.98;84.18;100018.00;129817;1096;23202;-62
2020/12/15 02:16:56;;;;;;;36.55;18.55;;;;;;;0.98;84.60;100024.20;129946;1093;23317;-61
2020/12/15 02:19:45;;;;;;;32.15;17.60;;;;;;;0.97;83.93;100016.33;129984;1098;23185;-61
2020/12/15 02:22:13;;;;;;;35.65;18.55;;;;;;;0.92;83.65;100011.51;129987;1093;23173;-62
2020/12/15 02:24:42;;;;;;;31.30;17.30;;;;;;;0.91;84.74;100015.20;129819;1093;23189;-62
2020/12/15 02:27:14;;;;;;;27.80;15.47;;;;;;;0.95;84.98;100019.20;129976;1099;23221;-61
2020/12/15 02:29:48;;;;;;;32.00;15.50;;;;;;;0.97;83.97;100014.48;129848;1093;24207;-61
2020/12/15 02:32:16;;;;;;;30.00;17.25;;;;;;;0.98;84.83;100013.47;129991;1093;24914;-61
2020/12/15 02:34:47;;;;;;;31.40;17.40;;;;;;;0.98;84.17;100021.52;129928;1100;23166;-61
2020/12/15 02:37:15;;;;;;;33.03;18.30;;;;;;;0.99;84.60;100009.77;129962;1093;23222;-61
2020/12/15 02:40:01;;;;;;;35.10;18.80;;;;;;;1.01;84.02;100010.39;129802;1093;24112;-61
2020/12/15 02:43:01;;;;;;;31.60;18.10;;;;;;;1.02;84.01;100006.70;130060;1093;23321;-61
2020/12/15 02:45:29;;;;;;;35.67;19.80;;;;;;;1.04;84.45;100006.52;130097;1093;25223;-61
2020/12/15 02:47:57;;;;;;;27.57;17.23;;;;;;;1.03;84.92;100011.05;129997;1093;24837;-61
2020/12/15 02:50:33;;;;;;;27.30;14.77;;;;;;;1.05;84.84;100009.02;129865;1093;23854;-61
2020/12/15 02:53:22;;;;;;;25.95;13.85;;;;;;;1.08;83.66;100009.67;130031;1093;23201;-61
2020/12/15 02:55:51;;;;;;;24.00;13.10;;;;;;;1.10;84.75;100013.84;129792;1093;23220;-61
2020/12/15 02:58:29;;;;;;;21.70;12.20;;;;;;;1.09;84.27;100014.85;129990;1093;23191;-61
2020/12/15 03:00:58;;;;;;;20.65;13.80;;;;;;;1.09;84.76;100008.66;130084;1093;23204;-61
2020/12/15 03:03:25;;;;;;;24.20;13.83;;;;;;;1.08;84.41;100010.50;130188;1099;23322;-61
2020/12/15 03:06:05;;;;;;;23.50;13.80;;;;;;;1.08;83.98;100006.98;129845;1093;23202;-67
2020/12/15 03:08:37;;;;;;;21.10;13.50;;;;;;;1.09;83.89;100014.02;130158;1093;23152;-66
2020/12/15 03:11:06;;;;;;;22.95;13.70;;;;;;;1.06;84.34;100007.17;130019;1099;23186;-66
2020/12/15 03:13:39;;;;;;;24.00;15.05;;;;;;;1.05;83.71;100009.02;130130;1093;23228;-66
2020/12/15 03:16:07;;;;;;;26.70;13.90;;;;;;;1.08;84.69;100007.82;130122;1093;23173;-66
2020/12/15 03:18:35;;;;;;;25.37;14.37;;;;;;;1.09;84.08;100009.48;129814;1097;24110;-66
2020/12/15 03:21:08;;;;;;;21.10;13.27;;;;;;;1.05;83.65;100005.50;129955;1093;23206;-66
2020/12/15 03:23:37;;;;;;;28.40;15.93;;;;;;;1.02;84.59;100005.86;130034;1098;23163;-66
2020/12/15 03:26:05;;;;;;;23.15;15.00;;;;;;;0.98;83.57;100023.37;129966;1093;23225;-66
2020/12/15 03:28:33;;;;;;;32.00;17.50;;;;;;;0.98;84.72;100023.37;130099;1093;23187;-66
2020/12/15 03:31:03;;;;;;;31.57;17.17;;;;;;;0.94;84.44;100027.42;130016;1098;23979;-67
2020/12/15 03:33:33;;;;;;;27.10;15.85;;;;;;;0.86;84.66;100031.04;129877;1092;23205;-66
2020/12/15 03:36:01;;;;;;;29.70;16.95;;;;;;;0.82;83.84;100031.58;129972;1099;23230;-61
2020/12/15 03:38:30;;;;;;;28.95;16.20;;;;;;;0.78;84.23;100033.78;129829;1093;23168;-61
2020/12/15 03:40:57;;;;;;;29.45;14.80;;;;;;;0.77;84.04;100033.96;129982;1093;23198;-61
2020/12/15 03:43:41;;;;;;;22.30;12.25;;;;;;;0.79;85.12;100039.98;129837;1093;23171;-61
2020/12/15 03:46:25;;;;;;;25.57;13.80;;;;;;;0.82;85.25;100037.77;129975;1093;23277;-62
2020/12/15 03:48:57;;;;;;;25.53;13.87;;;;;;;0.84;85.12;100037.59;129856;1093;23222;-61
2020/12/15 03:51:25;;;;;;;27.30;14.70;;;;;;;0.81;85.08;100046.00;130184;1093;23166;-61
2020/12/15 03:54:11;;;;;;;24.57;14.87;;;;;;;0.75;84.60;100050.23;130027;1093;24102;-61
2020/12/15 03:56:56;;;;;;;23.67;14.17;;;;;;;0.67;85.25;100050.31;129983;1093;23303;-61
2020/12/15 03:59:23;;;;;;;24.87;15.40;;;;;;;0.68;84.69;100054.67;130067;1099;23326;-61
2020/12/15 04:01:51;;;;;;;23.87;14.13;;;;;;;0.68;85.64;100065.39;129972;1093;24040;-61
2020/12/15 04:04:19;;;;;;;26.10;14.80;;;;;;;0.72;84.50;100065.88;129813;1093;24425;-62
2020/12/15 04:06:47;;;;;;;25.83;14.10;;;;;;;0.73;84.58;100062.15;129967;1093;23241;-61
2020/12/15 04:09:23;;;;;;;23.25;13.75;;;;;;;0.75;84.70;100068.17;129753;1093;23216;-61
2020/12/15 04:11:50;;;;;;;26.80;13.80;;;;;;;0.71;84.94;100070.41;130207;1093;23891;-61
2020/12/15 04:14:19;;;;;;;22.85;13.60;;;;;;;0.66;85.25;100073.62;129772;1093;23176;-61
2020/12/15 04:16:47;;;;;;;25.13;15.40;;;;;;;0.61;84.43;100073.31;126891;1093;23319;-60
2020/12/15 04:19:16;;;;;;;26.75;15.80;;;;;;;0.61;84.55;100077.84;130078;1099;23351;-61
2020/12/15 04:21:44;;;;;;;25.45;14.65;;;;;;;0.62;85.75;100080.34;130229;1093;23258;-61
2020/12/15 04:24:12;;;;;;;21.90;14.10;;;;;;;0.66;85.25;100080.83;129820;1093;23194;-61
2020/12/15 04:27:07;;;;;;;22.73;13.83;;;;;;;0.65;85.62;100077.31;130219;1099;24198;-61
2020/12/15 04:29:35;;;;;;;22.67;13.20;;;;;;;0.64;84.88;100083.69;129781;1093;24005;-61
2020/12/15 04:32:07;;;;;;;20.60;11.85;;;;;;;0.66;84.89;100078.98;129999;1099;23232;-61
2020/12/15 04:34:45;;;;;;;21.55;12.80;;;;;;;0.69;85.15;100085.84;129815;1093;23270;-61
2020/12/15 04:37:17;;;;;;;19.65;13.40;;;;;;;0.73;85.83;100089.80;130056;1093;23337;-61
2020/12/15 04:39:51;;;;;;;23.30;15.10;;;;;;;0.74;85.08;100086.11;129835;1099;23247;-61
2020/12/15 04:42:19;;;;;;;24.33;14.30;;;;;;;0.72;85.04;100093.53;129871;1095;23260;-61
2020/12/15 04:44:47;;;;;;;28.40;15.55;;;;;;;0.52;85.46;100061.00;129831;1094;24579;-62
2020/12/15 04:47:18;;;;;;;22.30;14.40;;;;;;;0.72;86.11;100085.48;129793;1102;23187;-61
2020/12/15 04:50:06;;;;;;;24.20;15.20;;;;;;;0.77;85.13;100084.91;129739;1096;24409;-61
2020/12/15 04:52:58;;;;;;;23.70;14.55;;;;;;;0.83;85.83;100092.25;129890;1093;23281;-61
2020/12/15 04:55:51;;;;;;;22.30;12.60;;;;;;;0.86;85.26;100094.58;129613;1097;24641;-61
2020/12/15 04:58:26;;;;;;;20.25;12.35;;;;;;;0.90;85.50;100088.65;129896;1096;23206;-61
2020/12/15 05:00:56;;;;;;;22.53;13.60;;;;;;;0.94;85.27;100095.33;129761;1096;23200;-61
2020/12/15 05:03:58;;;;;;;23.50;14.33;;;;;;;0.96;85.86;100097.83;129845;1102;23316;-61
2020/12/15 05:06:27;;;;;;;26.60;15.65;;;;;;;0.93;85.34;100090.98;129697;1096;24369;-61
2020/12/15 05:08:56;;;;;;;28.40;15.80;;;;;;;0.92;84.92;100094.67;129884;1095;24690;-61
2020/12/15 05:11:30;;;;;;;33.57;16.73;;;;;;;0.88;85.51;100104.09;129767;1096;23255;-61
2020/12/15 05:14:19;;;;;;;28.07;16.87;;;;;;;0.88;85.08;100098.72;129955;1093;24172;-61
2020/12/15 05:16:47;;;;;;;38.60;21.47;;;;;;;0.89;85.83;100105.75;130043;1093;23247;-61
2020/12/15 05:19:25;;;;;;;31.63;18.67;;;;;;;0.89;84.80;100108.44;130009;1093;23182;-61
2020/12/15 05:21:59;;;;;;;31.75;18.95;;;;;;;0.93;85.06;100112.44;129849;1093;23316;-61
2020/12/15 05:24:33;;;;;;;37.73;19.50;;;;;;;0.96;85.25;100112.08;130028;1100;23819;-61
2020/12/15 05:27:01;;;;;;;38.05;20.90;;;;;;;0.97;85.74;100113.75;129788;1093;23804;-61
2020/12/15 05:29:35;;;;;;;38.17;20.87;;;;;;;0.98;85.21;100117.27;130008;1093;24255;-61
2020/12/15 05:32:32;;;;;;;36.67;21.20;;;;;;;0.99;84.99;100118.94;129941;1093;23212;-61
2020/12/15 05:35:30;;;;;;;29.30;19.30;;;;;;;1.01;85.10;100124.96;130213;1093;25468;-61
2020/12/15 05:38:17;;;;;;;39.93;21.73;;;;;;;1.02;85.85;100123.91;129896;1093;24135;-62
2020/12/15 05:41:21;;;;;;;26.93;17.60;;;;;;;1.01;85.22;100130.33;130154;1093;24238;-61
2020/12/15 05:44:00;;;;;;;25.80;15.90;;;;;;;0.99;85.24;100133.19;129782;1100;23142;-62
2020/12/15 05:46:30;;;;;;;26.97;15.13;;;;;;;1.00;84.81;100137.54;127612;1093;23792;-60
2020/12/15 05:49:04;;;;;;;24.45;13.60;;;;;;;0.97;85.06;100139.74;125429;1099;23292;-61
2020/12/15 05:51:42;;;;;;;21.40;12.67;;;;;;;0.91;85.57;100146.66;130028;1093;23207;-61
2020/12/15 05:54:10;;;;;;;;;;;;;;;0.82;85.40;100147.74;130108;1093;23274;-61
2020/12/15 05:56:38;;;;;;;18.85;12.05;;;;;;;0.81;84.83;100150.60;130221;1098;21418;-61
2020/12/15 05:59:19;;;;;;;26.05;14.10;;;;;;;0.81;85.33;100150.60;130042;1092;23407;-61
2020/12/15 06:01:52;;;;;;;21.40;13.75;;;;;;;0.77;84.96;100155.48;130228;1093;23205;-61
2020/12/15 06:04:21;;;;;;;22.67;13.43;;;;;;;0.77;85.83;100166.21;130102;1093;23217;-61
2020/12/15 06:06:48;;;;;;;18.25;12.60;;;;;;;0.78;85.03;100164.37;130232;1099;23224;-61
2020/12/15 06:09:16;;;;;;;18.90;12.15;;;;;;;0.69;85.03;100153.71;130060;1093;24113;-61
2020/12/15 06:11:48;;;;;;;19.80;12.20;;;;;;;0.78;85.60;100173.25;129961;1093;23859;-61
2020/12/15 06:14:16;;;;;;;21.60;11.93;;;;;;;0.81;85.60;100170.21;130032;1093;23231;-61
2020/12/15 06:16:43;;;;;;;22.50;12.75;;;;;;;0.83;85.28;100186.97;130223;1099;23251;-61
2020/12/15 06:19:22;;;;;;;23.93;13.97;;;;;;;0.80;84.79;100192.69;130063;1092;23257;-61
2020/12/15 06:21:56;;;;;;;22.10;13.27;;;;;;;0.75;85.82;100189.69;130214;1094;23270;-61
2020/12/15 06:24:38;;;;;;;20.55;12.80;;;;;;;0.76;85.73;100190.52;129830;1099;24195;-62
2020/12/15 06:27:11;;;;;;;19.45;13.10;;;;;;;0.74;85.93;100197.91;130204;1093;24520;-61
2020/12/15 06:29:40;;;;;;;19.97;12.73;;;;;;;0.74;86.18;100200.59;130052;1093;23159;-61
2020/12/15 06:32:15;;;;;;;19.60;13.07;;;;;;;0.78;85.39;100199.23;130215;1093;23268;-61
2020/12/15 06:34:46;;;;;;;18.47;12.17;;;;;;;0.81;85.17;100199.72;130059;1093;23280;-61
2020/12/15 06:37:17;;;;;;;22.10;12.70;;;;;;;0.82;85.11;100200.55;130240;1093;23159;-60
2020/12/15 06:39:59;;;;;;;34.63;17.07;;;;;;;0.85;86.07;100208.25;130071;1093;23193;-61
2020/12/15 06:42:27;;;;;;;35.20;18.73;;;;;;;0.86;85.95;100210.76;130230;1093;23290;-61
2020/12/15 06:45:07;;;;;;;37.33;22.20;;;;;;;0.87;86.01;100216.92;130084;1098;23333;-62
2020/12/15 06:47:36;;;;;;;50.20;27.67;;;;;;;0.87;84.93;100220.45;130202;1093;23162;-62
2020/12/15 06:50:13;;;;;;;40.90;22.65;;;;;;;0.83;85.44;100221.84;130064;1093;24139;-61
2020/12/15 06:52:41;;;;;;;33.55;18.80;;;;;;;0.83;85.10;100223.68;130224;1093;24242;-61
2020/12/15 06:55:10;;;;;;;30.35;18.95;;;;;;;0.87;85.08;100227.66;130061;1093;23203;-67
2020/12/15 06:57:38;;;;;;;32.47;18.50;;;;;;;0.87;85.38;100227.66;130158;1093;23221;-66
2020/12/15 07:00:11;;;;;;;33.40;19.70;;;;;;;0.88;85.96;100230.16;130095;1093;23614;-67
2020/12/15 07:02:39;;;;;;;31.00;19.00;;;;;;;0.89;85.01;100228.31;130202;1092;23262;-67
2020/12/15 07:05:15;;;;;;;27.70;16.83;;;;;;;0.82;84.87;100219.33;129995;1099;23125;-67
2020/12/15 07:07:53;;;;;;;25.45;16.12;;;;;;;0.90;84.87;100229.98;130134;1093;24140;-66
2020/12/15 07:10:23;;;;;;;30.30;17.63;;;;;;;0.85;85.26;100230.55;130241;1093;23266;-66
2020/12/15 07:12:50;;;;;;;29.93;17.73;;;;;;;0.83;84.95;100240.61;130063;1099;23161;-66
2020/12/15 07:15:18;;;;;;;34.00;18.60;;;;;;;0.82;85.05;100240.79;130194;1093;23314;-67
2020/12/15 07:17:50;;;;;;;31.73;17.70;;;;;;;0.80;85.93;100245.48;129854;1093;23245;-66
2020/12/15 07:20:25;;;;;;;27.65;16.75;;;;;;;0.79;85.51;100243.81;130153;1100;23152;-67
2020/12/15 07:22:53;;;;;;;30.00;16.10;;;;;;;0.80;85.70;100238.28;130042;1093;23198;-66
2020/12/15 07:25:21;;;;;;;31.77;16.67;;;;;;;0.80;84.77;100237.44;130217;1093;23231;-62
2020/12/15 07:27:48;;;;;;;27.20;14.80;;;;;;;0.84;85.71;100239.60;129953;1093;23232;-61
2020/12/15 07:30:20;;;;;;;26.75;16.35;;;;;;;0.88;85.55;100238.21;130161;1093;23283;-61
2020/12/15 07:32:49;;;;;;;34.70;19.90;;;;;;;0.96;84.92;100234.66;130051;1098;23193;-60
2020/12/15 07:35:20;;;;;;;35.85;20.05;;;;;;;0.99;85.88;100227.09;130200;1093;23218;-63
2020/12/15 07:37:48;;;;;;;32.85;20.10;;;;;;;1.04;85.20;100227.37;130040;1093;23246;-61
2020/12/15 07:40:17;;;;;;;40.60;23.80;;;;;;;1.07;85.49;100236.91;130142;1093;23283;-62
2020/12/15 07:42:58;;;;;;;39.35;22.85;;;;;;;1.06;85.67;100236.08;130029;1093;23301;-63
2020/12/15 07:45:29;;;;;;;43.90;23.35;;;;;;;1.04;85.40;100232.73;130222;1099;23169;-63
2020/12/15 07:47:57;;;;;;;38.13;22.50;;;;;;;1.01;85.04;100233.09;130059;1093;23176;-62
2020/12/15 07:50:28;;;;;;;39.50;21.10;;;;;;;0.97;84.96;100230.96;130196;1093;23328;-63
2020/12/15 07:53:06;;;;;;;38.05;22.30;;;;;;;0.95;84.39;100238.34;130038;1099;23271;-63
2020/12/15 07:55:44;;;;;;;37.95;21.85;;;;;;;0.95;85.36;100236.50;130086;1093;23170;-63
2020/12/15 07:58:15;;;;;;;45.85;22.45;;;;;;;0.96;85.07;100246.22;130033;1093;23167;-63
2020/12/15 08:00:43;;;;;;;36.75;22.05;;;;;;;0.95;84.89;100243.72;130176;1093;23296;-62
2020/12/15 08:03:11;;;;;;;39.93;23.67;;;;;;;0.90;84.50;100244.23;130067;1093;24613;-63
2020/12/15 08:05:38;;;;;;;41.75;23.20;;;;;;;0.88;84.69;100246.26;130205;1093;23183;-63
2020/12/15 08:08:06;;;;;;;42.20;23.40;;;;;;;0.84;85.83;100250.33;130041;1092;23329;-63
2020/12/15 08:10:34;;;;;;;41.70;23.47;;;;;;;0.84;85.93;100244.97;129962;1094;23917;-63
2020/12/15 08:13:04;;;;;;;42.83;24.50;;;;;;;0.86;85.26;100245.62;130019;1093;23280;-63
2020/12/15 08:15:39;;;;;;;41.10;23.37;;;;;;;0.88;85.84;100248.11;130213;1093;23195;-63
2020/12/15 08:18:10;;;;;;;37.00;21.73;;;;;;;0.91;86.04;100251.28;130047;1093;24273;-63
2020/12/15 08:20:38;;;;;;;41.73;23.00;;;;;;;0.96;85.20;100259.64;130177;1099;23304;-63
2020/12/15 08:23:10;;;;;;;38.75;20.25;;;;;;;0.99;85.45;100258.45;130200;1093;23343;-63
2020/12/15 08:25:44;;;;;;;39.27;21.07;;;;;;;1.03;85.96;100263.27;130070;1098;23869;-63
2020/12/15 08:28:22;;;;;;;45.60;26.53;;;;;;;1.09;85.44;100255.52;130174;1092;23276;-62
2020/12/15 08:30:50;;;;;;;;;;;;;;;1.13;85.14;100263.05;130057;1093;23388;-63
2020/12/15 08:33:24;;;;;;;53.58;26.50;;;;;;;1.15;86.20;100263.70;130192;1098;21428;-63
2020/12/15 08:35:52;;;;;;;52.90;29.85;;;;;;;1.16;85.17;100261.83;130044;1093;23315;-63
2020/12/15 08:38:20;;;;;;;60.00;35.55;;;;;;;1.17;86.05;100256.28;130201;1093;23315;-63
2020/12/15 08:41:01;;;;;;;56.83;32.03;;;;;;;1.22;85.88;100269.17;130060;1099;23176;-63
2020/12/15 08:43:28;;;;;;;53.10;29.85;;;;;;;1.26;85.31;100259.77;130133;1093;23318;-63
2020/12/15 08:45:58;;;;;;;45.53;24.87;;;;;;;1.31;84.68;100266.23;130063;1098;23183;-63
2020/12/15 08:48:26;;;;;;;44.10;24.25;;;;;;;1.35;85.90;100267.56;130173;1093;23267;-62
2020/12/15 08:50:55;;;;;;;47.57;27.30;;;;;;;1.39;85.02;100271.56;130009;1093;23162;-63
2020/12/15 08:53:30;;;;;;;43.85;24.80;;;;;;;1.42;84.78;100265.00;130174;1093;23187;-63
2020/12/15 08:55:58;;;;;;;46.95;25.00;;;;;;;1.37;84.10;100260.16;130035;1093;23223;-68
2020/12/15 08:58:26;;;;;;;49.50;26.57;;;;;;;1.31;84.36;100268.92;130145;1093;23186;-67
2020/12/15 09:00:55;;;;;;;126.93;75.37;;;;;;;1.27;85.21;100259.58;130091;1093;23876;-63
2020/12/15 09:03:23;;;;;;;51.17;30.67;;;;;;;1.27;84.55;100262.27;130155;1093;23975;-64
2020/12/15 09:05:58;;;;;;;54.57;27.77;;;;;;;1.27;84.85;100251.53;130038;1093;23279;-65
2020/12/15 09:08:26;;;;;;;52.00;29.00;;;;;;;1.29;84.22;100254.04;130190;1093;23248;-64
2020/12/15 09:10:55;;;;;;;47.40;25.50;;;;;;;1.30;84.20;100253.02;130050;1093;24127;-65
2020/12/15 09:13:22;;;;;;;49.50;27.10;;;;;;;1.31;84.29;100252.81;130251;1098;23223;-65
2020/12/15 09:15:56;;;;;;;49.77;27.13;;;;;;;1.37;85.54;100248.59;130056;1093;23290;-65
2020/12/15 09:18:31;;;;;;;53.53;28.80;;;;;;;1.41;85.51;100250.74;130195;1093;23180;-66
2020/12/15 09:21:14;;;;;;;53.10;29.00;;;;;;;1.46;84.85;100262.77;130080;1093;23320;-64
2020/12/15 09:24:00;;;;;;;56.47;30.37;;;;;;;1.49;84.48;100257.87;130215;1092;23211;-65
2020/12/15 09:26:27;;;;;;;64.00;35.00;;;;;;;1.52;84.89;100260.20;130074;1093;23195;-64
2020/12/15 09:29:13;;;;;;;57.40;34.95;;;;;;;1.52;84.64;100254.00;130178;1099;23172;-64
2020/12/15 09:31:54;;;;;;;58.67;32.83;;;;;;;1.51;84.69;100255.84;130039;1093;23207;-64
2020/12/15 09:34:22;;;;;;;53.85;29.40;;;;;;;1.51;84.56;100258.53;130201;1093;23251;-65
2020/12/15 09:36:57;;;;;;;59.20;27.70;;;;;;;1.48;84.96;100250.00;130061;1093;24082;-65
2020/12/15 09:39:26;;;;;;;44.87;23.17;;;;;;;1.47;84.24;100259.06;130105;1093;23217;-65
2020/12/15 09:41:59;;;;;;;49.67;25.47;;;;;;;1.43;84.08;100268.52;130074;1093;23266;-65
2020/12/15 09:44:27;;;;;;;42.00;23.50;;;;;;;1.39;84.94;100259.98;130062;1093;23212;-65
2020/12/15 09:46:55;;;;;;;43.67;23.50;;;;;;;1.44;85.24;100267.51;130091;1092;23174;-65
2020/12/15 09:49:23;;;;;;;49.63;25.37;;;;;;;1.47;84.62;100261.75;130270;1099;23202;-64
2020/12/15 09:51:50;;;;;;;53.75;24.45;;;;;;;1.49;83.92;100259.72;130075;1093;23231;-64
2020/12/15 09:54:18;;;;;;;43.00;24.90;;;;;;;1.49;84.97;100262.41;130208;1093;23295;-64
2020/12/15 09:56:46;;;;;;;170.37;37.20;;;;;;;1.38;84.18;100243.05;130252;1099;23324;-65
2020/12/15 09:59:14;;;;;;;56.45;28.90;;;;;;;1.51;84.43;100249.64;130078;1094;23262;-64
2020/12/15 10:01:43;;;;;;;52.30;26.43;;;;;;;1.54;85.00;100257.34;130209;1098;23298;-65
2020/12/15 10:04:11;;;;;;;51.65;26.70;;;;;;;1.57;84.99;100254.30;130040;1093;23181;-63
2020/12/15 10:06:40;;;;;;;55.00;30.10;;;;;;;1.59;85.04;100253.07;127492;1093;23386;-63
2020/12/15 10:09:07;;;;;;;52.75;31.40;;;;;;;1.63;84.49;100251.70;130027;1093;23201;-65
2020/12/15 10:11:37;;;;;;;57.55;31.35;;;;;;;1.64;83.96;100250.69;130156;1093;23202;-65
2020/12/15 10:14:05;;;;;;;61.05;34.60;;;;;;;1.65;84.98;100249.67;130066;1098;23239;-65
2020/12/15 10:16:36;;;;;;;82.47;45.93;;;;;;;1.69;84.90;100252.83;130198;1093;23209;-64
2020/12/15 10:19:04;;;;;;;76.33;43.40;;;;;;;1.72;84.84;100255.16;130038;1093;23304;-65
2020/12/15 10:21:31;;;;;;;67.87;40.00;;;;;;;1.74;84.50;100242.36;130158;1093;23190;-64
2020/12/15 10:24:05;;;;;;;64.77;36.13;;;;;;;1.75;84.37;100252.08;130035;1092;23248;-64
2020/12/15 10:26:33;;;;;;;67.13;34.90;;;;;;;1.77;84.62;100250.05;130233;1093;23336;-64
2020/12/15 10:29:09;;;;;;;65.05;34.45;;;;;;;1.76;84.37;100253.76;130126;1093;24114;-64
2020/12/15 10:33:12;;;;;;;53.63;28.37;;;;;;;1.79;84.05;100248.02;125892;1093;23344;-64
2020/12/15 10:35:40;;;;;;;56.47;31.33;;;;;;;1.80;84.41;100249.69;129980;1093;23156;-63
2020/12/15 10:38:08;;;;;;;51.40;28.80;;;;;;;1.80;84.97;100251.55;130112;1098;23344;-65
2020/12/15 10:40:36;;;;;;;53.80;29.83;;;;;;;1.81;84.00;100253.22;129827;1093;23168;-62
2020/12/15 10:43:04;;;;;;;52.00;28.60;;;;;;;1.77;84.93;100250.89;130121;1093;23162;-63
2020/12/15 10:45:36;;;;;;;51.93;27.93;;;;;;;1.77;84.07;100248.20;130004;1099;24251;-62
2020/12/15 10:48:04;;;;;;;55.53;29.87;;;;;;;1.74;84.22;100253.10;130122;1093;23970;-62
2020/12/15 10:50:31;;;;;;;54.30;29.05;;;;;;;1.73;84.02;100249.58;130045;1092;23330;-63
2020/12/15 10:52:59;;;;;;;51.95;30.20;;;;;;;1.74;84.37;100250.41;125960;1099;23329;-61
2020/12/15 10:55:29;;;;;;;47.10;26.47;;;;;;;1.77;84.45;100252.74;130069;1092;23166;-62
2020/12/15 10:57:56;;;;;;;42.60;24.50;;;;;;;1.76;83.98;100251.91;130209;1099;24213;-62
2020/12/15 11:00:23;;;;;;;41.60;24.60;;;;;;;1.77;83.91;100255.42;130053;1093;24286;-62
2020/12/15 11:02:54;;;;;;;48.00;24.43;;;;;;;1.75;83.81;100258.30;130160;1093;23205;-62
2020/12/15 11:05:22;;;;;;;39.90;22.80;;;;;;;1.75;83.82;100255.61;130058;1099;23270;-63
2020/12/15 11:07:49;;;;;;;42.67;23.00;;;;;;;1.75;84.49;100255.61;130153;1093;23202;-62
2020/12/15 11:10:19;;;;;;;44.07;24.93;;;;;;;1.75;84.28;100257.45;130094;1092;23183;-63
2020/12/15 11:12:46;;;;;;;41.07;24.70;;;;;;;1.73;84.48;100262.20;130223;1093;23277;-63
2020/12/15 11:15:14;;;;;;;42.87;23.17;;;;;;;1.75;84.34;100252.92;130109;1092;23256;-65
2020/12/15 11:17:46;;;;;;;39.83;23.03;;;;;;;1.77;84.34;100266.17;130228;1099;23179;-64
2020/12/15 11:20:14;;;;;;;40.97;22.70;;;;;;;1.81;84.16;100263.97;130048;1093;23288;-63
2020/12/15 11:22:41;;;;;;;45.25;24.85;;;;;;;1.84;84.34;100264.44;130203;1093;23222;-64
2020/12/15 11:25:10;;;;;;;45.55;23.95;;;;;;;1.87;84.23;100269.45;130190;1098;23347;-63
2020/12/15 11:27:37;;;;;;;44.17;24.33;;;;;;;1.90;84.37;100270.91;130063;1093;23288;-63
2020/12/15 11:30:10;;;;;;;49.43;27.23;;;;;;;1.90;83.82;100276.28;130204;1098;23136;-63
2020/12/15 11:32:37;;;;;;;44.97;24.73;;;;;;;1.89;84.48;100278.14;130047;1093;23353;-64